Time;durP1;ratioP1;P1;durP2;ratioP2;P2;SDS_P1;SDS_P2;PMS_P1;PMS_P2;Temp;Humidity;BMP_temperature;BMP_pressure;BME280_temperature;BME280_humidity;BME280_pressure;Samples;Min_cycle;Max_cycle;Signal;HPM_P1;HPM_P2
2022/10/10 00:04:08;;;;;;;9.60;5.07;;;;;7.30;100881.00;;;;10475068;28;20216;-76
2022/10/10 00:09:09;;;;;;;7.60;4.77;;;;;7.40;100888.00;;;;10527422;27;20204;-76
2022/10/10 00:14:10;;;;;;;10.47;6.13;;;;;7.50;100892.00;;;;10471586;28;20201;-76
2022/10/10 00:19:11;;;;;;;9.80;6.07;;;;;7.50;100893.00;;;;10492759;28;20205;-76
2022/10/10 00:24:12;;;;;;;5.93;4.80;;;;;7.50;100900.00;;;;10503331;28;20291;-76
2022/10/10 00:29:14;;;;;;;10.27;5.87;;;;;7.50;100892.00;;;;10502866;28;20744;-76
2022/10/10 00:34:15;;;;;;;9.03;5.30;;;;;7.60;100884.00;;;;10504958;27;20205;-76
2022/10/10 00:39:16;;;;;;;8.93;5.40;;;;;7.60;100886.00;;;;10472975;28;20204;-76
2022/10/10 00:44:17;;;;;;;6.87;4.37;;;;;7.50;100880.00;;;;10462668;28;20329;-76
2022/10/10 00:49:23;;;;;;;6.07;4.57;;;;;7.50;100877.00;;;;10498300;27;20737;-76
2022/10/10 00:54:26;;;;;;;13.00;5.10;;;;;7.60;100883.00;;;;10475533;28;20779;-76
2022/10/10 00:59:31;;;;;;;9.43;5.30;;;;;7.70;100876.00;;;;10500520;28;20189;-76
2022/10/10 01:04:41;;;;;;;9.47;5.23;;;;;7.90;100862.00;;;;10484156;28;20266;-76
2022/10/10 01:09:49;;;;;;;9.80;5.00;;;;;8.00;100869.00;;;;10502405;28;20228;-76
2022/10/10 01:15:10;;;;;;;13.27;5.43;;;;;8.10;100858.00;;;;10477816;28;20204;-76
2022/10/10 01:20:17;;;;;;;8.33;4.77;;;;;8.20;100855.00;;;;10470097;28;20820;-76
2022/10/10 01:25:39;;;;;;;8.87;4.67;;;;;8.20;100865.00;;;;10518151;27;20221;-76
2022/10/10 01:30:40;;;;;;;8.97;4.37;;;;;8.30;100863.00;;;;10472827;27;20201;-76
2022/10/10 01:36:06;;;;;;;7.57;4.70;;;;;8.20;100860.00;;;;10489045;28;20230;-76
2022/10/10 01:41:21;;;;;;;8.97;4.40;;;;;8.00;100864.00;;;;10474116;28;20217;-76
2022/10/10 01:46:22;;;;;;;7.50;4.73;;;;;7.80;100857.00;;;;10493206;27;20212;-76
2022/10/10 01:51:53;;;;;;;6.90;4.10;;;;;7.70;100852.00;;;;10492936;28;20266;-76
2022/10/10 01:57:01;;;;;;;8.03;3.70;;;;;7.80;100845.00;;;;10483668;28;20257;-76
2022/10/10 02:02:10;;;;;;;15.07;4.73;;;;;7.80;100853.00;;;;10514052;28;20219;-75
2022/10/10 02:07:20;;;;;;;7.93;4.63;;;;;8.00;100851.00;;;;10472221;28;20193;-76
2022/10/10 02:12:22;;;;;;;10.57;4.60;;;;;8.00;100846.00;;;;10482648;28;20634;-76
2022/10/10 02:17:25;;;;;;;9.10;5.23;;;;;8.00;100843.00;;;;10493682;27;20204;-76
2022/10/10 02:22:28;;;;;;;8.47;4.70;;;;;8.00;100843.00;;;;10472741;28;20231;-76
2022/10/10 02:27:48;;;;;;;7.37;4.80;;;;;8.10;100831.00;;;;10504480;28;20207;-76
2022/10/10 02:32:58;;;;;;;9.73;4.90;;;;;8.00;100822.00;;;;10520893;27;20250;-76
2022/10/10 02:38:02;;;;;;;6.17;4.30;;;;;7.90;100821.00;;;;10471685;28;20200;-76
2022/10/10 02:43:06;;;;;;;11.63;4.67;;;;;7.80;100811.00;;;;10486355;28;20222;-76
2022/10/10 02:48:08;;;;;;;9.87;4.97;;;;;7.70;100810.00;;;;10483345;28;20702;-76
2022/10/10 02:53:09;;;;;;;7.80;4.77;;;;;7.60;100805.00;;;;10497174;28;20278;-76
2022/10/10 02:58:10;;;;;;;6.63;4.87;;;;;7.50;100816.00;;;;10493262;28;20189;-76
2022/10/10 03:03:11;;;;;;;9.20;4.53;;;;;7.50;100808.00;;;;10495283;28;20217;-76
2022/10/10 03:08:12;;;;;;;11.97;4.53;;;;;7.40;100807.00;;;;10521845;28;20675;-76
2022/10/10 03:13:14;;;;;;;9.33;5.03;;;;;7.40;100797.00;;;;10507658;28;20225;-76
2022/10/10 03:18:15;;;;;;;7.23;4.40;;;;;7.40;100807.00;;;;10477505;28;20200;-76
2022/10/10 03:23:16;;;;;;;11.93;5.83;;;;;7.50;100801.00;;;;10476366;28;20212;-76
2022/10/10 03:28:17;;;;;;;12.13;5.70;;;;;7.60;100798.00;;;;10475449;27;20848;-76
2022/10/10 03:33:19;;;;;;;14.67;5.10;;;;;7.60;100802.00;;;;10520028;27;20683;-76
2022/10/10 03:38:20;;;;;;;8.83;5.67;;;;;7.70;100797.00;;;;10509811;28;20204;-76
2022/10/10 03:43:21;;;;;;;14.27;5.67;;;;;7.70;100804.00;;;;10494367;28;20220;-76
2022/10/10 03:48:22;;;;;;;12.07;5.40;;;;;7.60;100796.00;;;;10497180;28;20201;-76
2022/10/10 03:53:23;;;;;;;8.87;5.70;;;;;7.60;100807.00;;;;10518200;27;20201;-76
2022/10/10 03:58:24;;;;;;;9.83;5.83;;;;;7.70;100804.00;;;;10486767;28;20241;-76
2022/10/10 04:03:27;;;;;;;16.33;6.17;;;;;7.80;100806.00;;;;10508359;27;20217;-76
2022/10/10 04:08:29;;;;;;;12.00;5.63;;;;;7.80;100802.00;;;;10474823;28;20222;-76
2022/10/10 04:13:30;;;;;;;13.37;6.90;;;;;7.90;100804.00;;;;10489701;28;20220;-76
2022/10/10 04:18:31;;;;;;;11.57;5.97;;;;;7.80;100802.00;;;;10486654;27;20583;-76
2022/10/10 04:23:33;;;;;;;14.53;6.43;;;;;7.80;100805.00;;;;10489999;28;20221;-76
2022/10/10 04:28:34;;;;;;;15.03;6.07;;;;;7.60;100807.00;;;;10477971;28;20193;-76
2022/10/10 04:33:36;;;;;;;12.60;6.30;;;;;7.40;100794.00;;;;10457518;28;20209;-76
2022/10/10 04:38:37;;;;;;;15.93;5.80;;;;;7.30;100801.00;;;;10504715;28;20205;-76
2022/10/10 04:43:38;;;;;;;15.93;6.37;;;;;7.30;100804.00;;;;10460599;28;20224;-76
2022/10/10 04:48:39;;;;;;;13.40;6.33;;;;;7.30;100807.00;;;;10478023;28;20459;-76
2022/10/10 04:53:40;;;;;;;13.57;7.23;;;;;7.40;100809.00;;;;10477971;28;20204;-76
2022/10/10 04:58:42;;;;;;;16.03;7.73;;;;;7.50;100802.00;;;;10490829;28;20797;-76
2022/10/10 05:03:43;;;;;;;14.67;8.23;;;;;7.70;100804.00;;;;10466420;28;20223;-76
2022/10/10 05:08:44;;;;;;;12.20;7.53;;;;;8.00;100811.00;;;;10488722;28;20207;-76
2022/10/10 05:13:46;;;;;;;16.90;8.80;;;;;8.00;100810.00;;;;10512964;28;20225;-76
2022/10/10 05:18:47;;;;;;;14.87;8.20;;;;;7.90;100810.00;;;;10479061;28;20919;-76
2022/10/10 05:23:48;;;;;;;17.70;9.03;;;;;7.80;100820.00;;;;10461943;28;20213;-76
2022/10/10 05:28:49;;;;;;;17.57;9.53;;;;;7.80;100812.00;;;;10508165;28;20205;-76
2022/10/10 05:33:50;;;;;;;18.40;9.10;;;;;7.80;100817.00;;;;10467960;27;20287;-76
2022/10/10 05:38:51;;;;;;;15.10;7.83;;;;;7.80;100806.00;;;;10487223;28;20189;-76
2022/10/10 05:43:53;;;;;;;14.90;7.10;;;;;7.80;100814.00;;;;10482181;28;20621;-76
2022/10/10 05:48:54;;;;;;;17.27;8.13;;;;;7.70;100804.00;;;;10487027;27;20198;-76
2022/10/10 05:53:56;;;;;;;24.37;8.63;;;;;7.70;100806.00;;;;10474905;28;20201;-76
2022/10/10 05:58:57;;;;;;;15.93;7.47;;;;;7.70;100816.00;;;;10496055;28;20218;-76
2022/10/10 06:03:58;;;;;;;20.33;6.37;;;;;7.70;100808.00;;;;10491312;28;20447;-76
2022/10/10 06:08:59;;;;;;;11.00;6.47;;;;;7.80;100816.00;;;;10454866;28;20196;-76
2022/10/10 06:14:00;;;;;;;18.60;6.70;;;;;7.90;100809.00;;;;10476434;28;20228;-76
2022/10/10 06:19:02;;;;;;;18.83;7.63;;;;;8.10;100810.00;;;;10504896;28;20262;-76
2022/10/10 06:24:05;;;;;;;16.63;6.47;;;;;8.30;100825.00;;;;10510892;28;20216;-76
2022/10/10 06:29:06;;;;;;;12.40;6.30;;;;;8.50;100834.00;;;;10488742;28;20197;-76
2022/10/10 06:34:07;;;;;;;13.63;6.77;;;;;8.70;100836.00;;;;10473871;28;20192;-76
2022/10/10 06:39:08;;;;;;;13.27;6.70;;;;;8.90;100843.00;;;;10442593;28;20233;-76
2022/10/10 06:44:10;;;;;;;14.33;7.60;;;;;9.00;100839.00;;;;10458001;28;20220;-76
2022/10/10 06:49:12;;;;;;;20.40;8.37;;;;;9.30;100844.00;;;;10454813;28;20216;-76
2022/10/10 06:54:13;;;;;;;16.20;7.47;;;;;9.80;100853.00;;;;10495898;28;20754;-76
2022/10/10 06:59:14;;;;;;;12.03;7.40;;;;;10.30;100856.00;;;;10496514;28;20185;-76
2022/10/10 07:04:15;;;;;;;15.90;7.80;;;;;10.70;100857.00;;;;10484568;28;20617;-76
2022/10/10 07:09:18;;;;;;;16.17;6.83;;;;;11.00;100853.00;;;;10450034;28;20205;-76
2022/10/10 07:14:19;;;;;;;12.23;5.63;;;;;11.20;100856.00;;;;10470655;28;20193;-76
2022/10/10 07:19:23;;;;;;;12.17;6.33;;;;;11.50;100860.00;;;;10463395;28;20193;-76
2022/10/10 07:24:24;;;;;;;12.07;5.67;;;;;11.90;100874.00;;;;10487102;28;20225;-76
2022/10/10 07:29:27;;;;;;;11.60;5.70;;;;;12.00;100867.00;;;;10487150;28;20254;-76
2022/10/10 07:34:28;;;;;;;7.80;5.00;;;;;12.20;100879.00;;;;10513646;28;20814;-77
2022/10/10 07:39:29;;;;;;;8.20;4.33;;;;;12.30;100880.00;;;;10483515;28;20197;-76
2022/10/10 07:44:30;;;;;;;7.07;4.27;;;;;12.40;100879.00;;;;10479555;28;20216;-77
2022/10/10 07:49:35;;;;;;;8.90;4.47;;;;;12.70;100875.00;;;;10499079;28;20201;-76
2022/10/10 07:54:36;;;;;;;11.50;4.53;;;;;13.00;100880.00;;;;10474557;28;20201;-77
2022/10/10 07:59:39;;;;;;;7.87;4.67;;;;;13.50;100876.00;;;;10494153;27;20221;-77
2022/10/10 08:04:40;;;;;;;7.87;4.53;;;;;13.90;100874.00;;;;10479934;28;20225;-77
2022/10/10 08:09:41;;;;;;;7.43;4.37;;;;;14.50;100890.00;;;;10502573;28;20216;-77
2022/10/10 08:14:43;;;;;;;7.90;3.67;;;;;15.00;100889.00;;;;10482271;28;20216;-77
2022/10/10 08:19:44;;;;;;;5.97;4.07;;;;;15.40;100893.00;;;;10512291;28;20200;-77
2022/10/10 08:24:45;;;;;;;9.25;3.90;;;;;15.40;100909.00;;;;10507582;27;20231;-77
2022/10/10 08:29:46;;;;;;;8.30;3.80;;;;;15.40;100911.00;;;;10516355;28;20205;-76
2022/10/10 08:34:48;;;;;;;10.95;4.22;;;;;15.70;100915.00;;;;10528665;27;20200;-77
2022/10/10 08:39:49;;;;;;;10.80;3.30;;;;;16.30;100910.00;;;;10503837;28;20209;-77
2022/10/10 08:44:58;;;;;;;6.40;3.30;;;;;17.30;100897.00;;;;10509322;27;20242;-77
2022/10/10 08:50:32;;;;;;;9.38;3.30;;;;;18.10;100911.00;;;;10491371;27;20239;-77
2022/10/10 08:55:38;;;;;;;15.98;7.95;;;;;18.80;100918.00;;;;10502445;27;20196;-77
2022/10/10 09:00:46;;;;;;;8.52;4.07;;;;;18.90;100929.00;;;;10471483;28;20206;-77
2022/10/10 09:06:05;;;;;;;8.30;2.97;;;;;18.50;100935.00;;;;10495031;28;20221;-77
2022/10/10 09:11:32;;;;;;;10.18;3.65;;;;;18.20;100950.00;;;;10507749;28;20235;-77
2022/10/10 09:16:48;;;;;;;10.55;2.92;;;;;18.10;100959.00;;;;10466587;28;20203;-77
2022/10/10 09:21:58;;;;;;;9.65;3.45;;;;;17.80;100958.00;;;;10482586;28;20212;-77
2022/10/10 09:27:04;;;;;;;13.57;3.25;;;;;17.40;100968.00;;;;10469569;27;20201;-76
2022/10/10 09:32:18;;;;;;;11.52;3.58;;;;;17.10;100979.00;;;;10504044;27;20193;-77
2022/10/10 09:37:29;;;;;;;12.45;3.85;;;;;16.90;100967.00;;;;10469615;28;20421;-76
2022/10/10 09:42:48;;;;;;;8.38;3.63;;;;;17.50;100958.00;;;;10489417;28;20300;-76
2022/10/10 09:47:52;;;;;;;11.68;3.58;;;;;18.20;100965.00;;;;10500932;28;20285;-77
2022/10/10 09:52:56;;;;;;;8.93;3.40;;;;;19.10;100972.00;;;;10490674;28;20201;-77
2022/10/10 09:58:03;;;;;;;7.70;3.03;;;;;19.60;100973.00;;;;10498188;28;20209;-76
2022/10/10 10:03:11;;;;;;;14.57;3.65;;;;;19.80;100985.00;;;;10493129;28;20212;-77
2022/10/10 10:08:19;;;;;;;7.15;3.22;;;;;19.80;100977.00;;;;10528806;28;20195;-77
2022/10/10 10:13:25;;;;;;;9.52;3.20;;;;;21.00;100976.00;;;;10455925;28;20263;-77
2022/10/10 10:18:28;;;;;;;7.72;3.33;;;;;21.90;100973.00;;;;10509065;27;20206;-77
2022/10/10 10:24:00;;;;;;;8.85;3.35;;;;;22.60;100972.00;;;;10479271;28;20247;-77
2022/10/10 10:29:01;;;;;;;13.07;3.33;;;;;21.90;100982.00;;;;10511221;28;20201;-77
2022/10/10 10:34:30;;;;;;;8.13;3.50;;;;;22.40;100980.00;;;;10507982;28;20203;-77
2022/10/10 10:39:49;;;;;;;8.43;2.83;;;;;22.70;100980.00;;;;10519493;28;20185;-76
2022/10/10 10:44:58;;;;;;;12.80;3.60;;;;;22.60;100992.00;;;;10509436;28;20226;-76
2022/10/10 10:50:28;;;;;;;9.98;3.47;;;;;22.70;100985.00;;;;10484152;28;20667;-77
2022/10/10 10:55:41;;;;;;;9.48;2.88;;;;;23.30;100991.00;;;;10488263;27;20245;-77
2022/10/10 11:00:54;;;;;;;8.93;2.53;;;;;23.80;101001.00;;;;10492515;28;20223;-76
2022/10/10 11:06:29;;;;;;;10.25;2.80;;;;;22.80;101005.00;;;;10496413;28;20636;-77
2022/10/10 11:11:48;;;;;;;10.65;3.03;;;;;22.70;100997.00;;;;10469173;28;20243;-76
2022/10/10 11:16:54;;;;;;;9.82;2.75;;;;;23.90;101002.00;;;;10494939;28;20208;-77
2022/10/10 11:22:06;;;;;;;7.80;2.83;;;;;24.00;101004.00;;;;10481978;28;20261;-77
2022/10/10 11:27:21;;;;;;;11.48;2.95;;;;;23.50;101016.00;;;;10486178;28;20784;-75
2022/10/10 11:32:31;;;;;;;13.77;3.25;;;;;22.80;101025.00;;;;10511471;27;20197;-76
2022/10/10 11:37:38;;;;;;;6.85;2.85;;;;;22.00;101029.00;;;;10496029;27;20205;-77
2022/10/10 11:42:53;;;;;;;10.38;2.80;;;;;21.70;101031.00;;;;10495091;28;20213;-76
2022/10/10 11:48:16;;;;;;;7.80;2.42;;;;;21.70;101036.00;;;;10478022;28;20202;-77
2022/10/10 11:53:36;;;;;;;9.57;3.13;;;;;21.50;101031.00;;;;10499834;28;20204;-76
2022/10/10 11:58:49;;;;;;;8.85;3.20;;;;;21.20;101037.00;;;;10470697;28;20201;-76
2022/10/10 12:03:51;;;;;;;11.55;2.75;;;;;20.50;101040.00;;;;10492837;28;20320;-76
2022/10/10 12:09:02;;;;;;;9.93;2.72;;;;;20.30;101050.00;;;;10492729;28;20862;-76
2022/10/10 12:14:08;;;;;;;8.75;2.80;;;;;20.70;101056.00;;;;10516269;27;20232;-76
2022/10/10 12:19:21;;;;;;;9.93;2.75;;;;;21.10;101054.00;;;;10520556;27;20192;-76
2022/10/10 12:24:25;;;;;;;7.20;2.97;;;;;21.30;101067.00;;;;10509089;28;20247;-77
2022/10/10 12:30:07;;;;;;;6.28;2.80;;;;;21.40;101065.00;;;;10489761;28;20262;-77
2022/10/10 12:35:28;;;;;;;9.23;3.75;;;;;20.90;101072.00;;;;10484154;28;20200;-76
2022/10/10 12:40:31;;;;;;;8.73;3.17;;;;;20.50;101057.00;;;;10508498;28;20191;-76
2022/10/10 12:45:32;;;;;;;6.57;3.33;;;;;20.30;101062.00;;;;10482553;27;20218;-76
2022/10/10 12:50:40;;;;;;;9.10;3.25;;;;;20.60;101068.00;;;;10511224;28;20196;-77
2022/10/10 12:55:53;;;;;;;13.07;3.60;;;;;20.70;101085.00;;;;10501407;28;20193;-76
2022/10/10 13:00:57;;;;;;;9.80;3.60;;;;;20.60;101091.00;;;;10493664;28;20741;-76
2022/10/10 13:06:36;;;;;;;6.25;3.63;;;;;21.00;101092.00;;;;10486340;28;20231;-76
2022/10/10 13:12:23;;;;;;;11.40;3.80;;;;;21.10;101087.00;;;;10455099;28;20221;-76
2022/10/10 13:17:37;;;;;;;16.15;4.35;;;;;21.70;101088.00;;;;10473788;27;20200;-76
2022/10/10 13:22:39;;;;;;;8.57;4.50;;;;;21.90;101089.00;;;;10505225;28;20286;-76
2022/10/10 13:27:46;;;;;;;11.35;4.47;;;;;21.40;101101.00;;;;10488247;28;20197;-76
2022/10/10 13:32:47;;;;;;;6.57;3.70;;;;;21.40;101103.00;;;;10509296;27;20230;-77
2022/10/10 13:37:53;;;;;;;10.45;3.75;;;;;21.40;101118.00;;;;10499384;28;20846;-76
2022/10/10 13:42:57;;;;;;;14.10;4.70;;;;;21.10;101118.00;;;;10480935;28;20220;-77
2022/10/10 13:48:01;;;;;;;15.20;4.43;;;;;20.70;101137.00;;;;10451777;28;20211;-77
2022/10/10 13:53:28;;;;;;;8.95;4.13;;;;;20.20;101139.00;;;;10490421;27;20204;-76
2022/10/10 13:58:36;;;;;;;11.23;4.43;;;;;20.00;101147.00;;;;10459121;28;20205;-77
2022/10/10 14:03:37;;;;;;;10.77;4.65;;;;;20.20;101136.00;;;;10482174;28;20224;-77
2022/10/10 14:08:38;;;;;;;10.85;5.03;;;;;20.40;101137.00;;;;10531830;28;20670;-77
2022/10/10 14:13:47;;;;;;;11.93;4.30;;;;;20.60;101151.00;;;;10483018;28;20221;-76
2022/10/10 14:18:48;;;;;;;11.30;5.35;;;;;19.70;101169.00;;;;10486587;28;20703;-76
2022/10/10 14:23:49;;;;;;;9.50;6.32;;;;;18.80;101186.00;;;;10488156;27;20217;-77
2022/10/10 14:28:50;;;;;;;11.48;6.30;;;;;18.40;101189.00;;;;10503615;27;20278;-77
2022/10/10 14:33:52;;;;;;;9.20;6.43;;;;;18.20;101216.00;;;;10510610;28;20196;-77
2022/10/10 14:38:53;;;;;;;15.52;7.38;;;;;18.00;101234.00;;;;10515428;27;20235;-77
2022/10/10 14:43:54;;;;;;;14.57;7.97;;;;;17.90;101237.00;;;;10500525;28;20231;-77
2022/10/10 14:48:55;;;;;;;13.90;7.03;;;;;17.90;101250.00;;;;10479528;27;20204;-76
2022/10/10 14:53:56;;;;;;;12.98;8.35;;;;;17.70;101264.00;;;;10524956;28;20257;-77
2022/10/10 14:59:19;;;;;;;13.95;6.18;;;;;17.40;101271.00;;;;10500835;28;20193;-77
2022/10/10 15:04:40;;;;;;;11.65;4.55;;;;;16.80;101290.00;;;;10502250;28;20819;-77
2022/10/10 15:09:45;;;;;;;4.05;2.92;;;;;16.20;101304.00;;;;10505087;28;20265;-76
2022/10/10 15:15:08;;;;;;;5.63;2.25;;;;;15.90;101314.00;;;;10504981;28;20281;-76
2022/10/10 15:20:11;;;;;;;3.65;2.22;;;;;15.80;101311.00;;;;10462615;28;20204;-76
2022/10/10 15:25:13;;;;;;;5.28;2.00;;;;;15.70;101332.00;;;;10499146;28;20213;-76
2022/10/10 15:30:14;;;;;;;3.33;1.55;;;;;15.60;101347.00;;;;10507176;28;20189;-76
2022/10/10 15:35:21;;;;;;;7.55;2.80;;;;;15.50;101357.00;;;;10515537;28;20201;-77
2022/10/10 15:40:22;;;;;;;2.47;1.80;;;;;15.30;101375.00;;;;10488238;27;20341;-77
2022/10/10 15:45:24;;;;;;;5.43;1.73;;;;;14.90;101381.00;;;;10465560;28;20726;-77
2022/10/10 15:50:45;;;;;;;4.47;1.97;;;;;14.70;101393.00;;;;10486938;28;20202;-76
2022/10/10 15:55:47;;;;;;;5.43;1.50;;;;;14.60;101410.00;;;;10485259;28;20209;-77
2022/10/10 16:00:48;;;;;;;4.17;1.70;;;;;14.30;101421.00;;;;10486789;28;20204;-77
2022/10/10 16:05:49;;;;;;;4.10;1.20;;;;;14.20;101414.00;;;;10488746;28;20216;-77
2022/10/10 16:10:50;;;;;;;3.50;1.13;;;;;14.00;101429.00;;;;10499444;28;20217;-76
2022/10/10 16:15:58;;;;;;;3.03;1.20;;;;;13.80;101438.00;;;;10494823;28;20287;-77
2022/10/10 16:21:00;;;;;;;3.67;1.60;;;;;13.80;101440.00;;;;10474606;28;20204;-76
2022/10/10 16:26:09;;;;;;;4.10;1.73;;;;;13.80;101449.00;;;;10506204;27;20751;-76
2022/10/10 16:31:13;;;;;;;6.37;2.13;;;;;13.70;101455.00;;;;10467842;28;20284;-77
2022/10/10 16:36:18;;;;;;;13.50;3.13;;;;;13.70;101463.00;;;;10520228;27;20246;-77
2022/10/10 16:41:19;;;;;;;10.17;5.37;;;;;13.70;101472.00;;;;10460373;28;20193;-77
2022/10/10 16:46:40;;;;;;;12.73;6.40;;;;;13.70;101480.00;;;;10488932;28;20402;-77
2022/10/10 16:51:42;;;;;;;11.03;6.30;;;;;13.70;101494.00;;;;10513281;28;20192;-77
2022/10/10 16:56:43;;;;;;;8.77;5.53;;;;;13.60;101502.00;;;;10470492;28;20197;-76
2022/10/10 17:01:44;;;;;;;9.30;5.33;;;;;13.60;101494.00;;;;10497920;28;20201;-77
2022/10/10 17:06:45;;;;;;;10.40;4.47;;;;;13.60;101507.00;;;;10474018;28;20200;-76
2022/10/10 17:11:46;;;;;;;13.83;3.87;;;;;13.60;101517.00;;;;10454073;28;20220;-77
2022/10/10 17:16:52;;;;;;;10.87;4.77;;;;;13.50;101516.00;;;;10506156;28;20204;-77
2022/10/10 17:22:12;;;;;;;11.40;3.80;;;;;13.40;101530.00;;;;10537434;27;20311;-77
2022/10/10 17:27:13;;;;;;;10.80;4.20;;;;;13.30;101540.00;;;;10471254;28;20796;-77
2022/10/10 17:32:15;;;;;;;6.23;3.23;;;;;13.20;101551.00;;;;10486796;28;20196;-77
2022/10/10 17:37:16;;;;;;;12.00;3.70;;;;;13.10;101548.00;;;;10473673;28;20203;-77
2022/10/10 17:42:17;;;;;;;9.07;3.57;;;;;13.10;101562.00;;;;10494013;28;20224;-77
2022/10/10 17:47:19;;;;;;;14.03;4.53;;;;;13.10;101572.00;;;;10493671;28;20224;-77
2022/10/10 17:52:20;;;;;;;14.03;4.23;;;;;13.10;101585.00;;;;10482144;28;20223;-77
2022/10/10 17:57:22;;;;;;;14.03;4.70;;;;;13.00;101584.00;;;;10476587;28;20205;-77
2022/10/10 18:02:23;;;;;;;14.97;4.07;;;;;12.80;101607.00;;;;10495731;28;20215;-77
2022/10/10 18:07:25;;;;;;;13.50;4.53;;;;;12.60;101609.00;;;;10476409;28;20200;-77
2022/10/10 18:12:26;;;;;;;11.57;4.93;;;;;12.30;101620.00;;;;10495058;28;20278;-77
2022/10/10 18:17:27;;;;;;;18.70;4.50;;;;;12.20;101627.00;;;;10475722;28;20249;-77
2022/10/10 18:22:28;;;;;;;14.53;4.50;;;;;12.10;101630.00;;;;10481369;28;20220;-77
2022/10/10 18:27:29;;;;;;;9.33;3.80;;;;;11.90;101649.00;;;;10474456;28;20288;-77
2022/10/10 18:32:30;;;;;;;11.73;2.73;;;;;11.80;101647.00;;;;10486835;28;20185;-77
2022/10/10 18:37:33;;;;;;;12.33;3.13;;;;;11.60;101659.00;;;;10515581;28;20204;-77
2022/10/10 18:42:35;;;;;;;9.93;2.70;;;;;11.50;101673.00;;;;10520437;28;20652;-77
2022/10/10 18:47:36;;;;;;;5.87;2.33;;;;;11.30;101678.00;;;;10505680;28;20201;-77
2022/10/10 18:52:37;;;;;;;14.83;3.10;;;;;11.10;101679.00;;;;10500646;28;20216;-77
2022/10/10 18:57:39;;;;;;;9.47;2.70;;;;;10.80;101687.00;;;;10483922;28;20200;-77
2022/10/10 19:02:40;;;;;;;12.97;4.87;;;;;10.50;101695.00;;;;10509913;28;20217;-77
2022/10/10 19:07:41;;;;;;;11.97;4.47;;;;;10.30;101700.00;;;;10510697;28;20193;-77
2022/10/10 19:12:43;;;;;;;11.00;4.00;;;;;10.10;101707.00;;;;10492912;28;20751;-76
2022/10/10 19:17:48;;;;;;;16.40;4.13;;;;;9.90;101712.00;;;;10500600;28;20268;-77
2022/10/10 19:22:49;;;;;;;18.53;5.93;;;;;9.80;101712.00;;;;10486229;28;20901;-77
2022/10/10 19:27:50;;;;;;;12.10;3.70;;;;;9.70;101721.00;;;;10515545;28;20211;-76
2022/10/10 19:32:51;;;;;;;15.83;5.13;;;;;9.60;101727.00;;;;10500413;28;20206;-77
2022/10/10 19:37:52;;;;;;;15.53;4.77;;;;;9.50;101733.00;;;;10476396;28;20199;-77
2022/10/10 19:42:53;;;;;;;12.50;4.57;;;;;9.40;101744.00;;;;10467794;28;20213;-76
2022/10/10 19:47:55;;;;;;;11.37;4.53;;;;;9.30;101746.00;;;;10499949;28;20202;-77
2022/10/10 19:52:56;;;;;;;13.83;4.13;;;;;9.20;101755.00;;;;10489811;27;20843;-77
2022/10/10 19:57:57;;;;;;;18.33;5.83;;;;;9.10;101762.00;;;;10477990;27;20200;-76
2022/10/10 20:02:58;;;;;;;17.57;4.87;;;;;9.00;101770.00;;;;10497919;27;20227;-77
2022/10/10 20:07:59;;;;;;;15.90;4.67;;;;;8.90;101788.00;;;;10498355;28;20200;-76
2022/10/10 20:13:00;;;;;;;14.83;5.43;;;;;8.80;101792.00;;;;10466513;28;20229;-77
2022/10/10 20:18:01;;;;;;;25.67;6.87;;;;;8.70;101788.00;;;;10497605;28;20205;-77
2022/10/10 20:23:04;;;;;;;12.83;4.67;;;;;8.70;101799.00;;;;10499679;28;20221;-77
2022/10/10 20:28:06;;;;;;;16.30;4.37;;;;;8.60;101816.00;;;;10489356;28;20433;-77
2022/10/10 20:33:07;;;;;;;15.77;5.00;;;;;8.60;101822.00;;;;10488000;28;20726;-77
2022/10/10 20:38:10;;;;;;;9.33;4.07;;;;;8.50;101821.00;;;;10534793;27;20204;-77
2022/10/10 20:43:13;;;;;;;16.80;4.50;;;;;8.40;101826.00;;;;10515828;28;20217;-77
2022/10/10 20:48:14;;;;;;;13.97;4.27;;;;;8.40;101827.00;;;;10473183;28;20207;-77
2022/10/10 20:53:15;;;;;;;14.30;4.70;;;;;8.30;101833.00;;;;10461029;28;20811;-77
2022/10/10 20:58:16;;;;;;;19.47;4.63;;;;;8.20;101839.00;;;;10504046;28;20288;-77
2022/10/10 21:03:18;;;;;;;15.63;4.27;;;;;8.10;101837.00;;;;10482515;28;20213;-77
2022/10/10 21:08:19;;;;;;;13.03;4.07;;;;;8.10;101846.00;;;;10488838;28;20284;-76
2022/10/10 21:13:20;;;;;;;17.03;4.30;;;;;8.00;101852.00;;;;10466247;28;20217;-77
2022/10/10 21:18:21;;;;;;;14.57;4.30;;;;;7.90;101858.00;;;;10508135;27;20192;-77
2022/10/10 21:23:22;;;;;;;13.10;4.87;;;;;7.80;101870.00;;;;10466795;27;20220;-77
2022/10/10 21:28:24;;;;;;;13.23;4.70;;;;;7.70;101869.00;;;;10495257;28;20203;-77
2022/10/10 21:33:25;;;;;;;14.43;5.33;;;;;7.60;101869.00;;;;10466601;28;20205;-77
2022/10/10 21:38:26;;;;;;;18.67;4.90;;;;;7.60;101881.00;;;;10519051;28;20277;-77
2022/10/10 21:43:27;;;;;;;17.07;5.63;;;;;7.50;101890.00;;;;10505662;28;20212;-77
2022/10/10 21:48:28;;;;;;;15.97;5.23;;;;;7.50;101893.00;;;;10503446;28;20193;-77
2022/10/10 21:53:29;;;;;;;15.10;5.87;;;;;7.40;101889.00;;;;10485605;28;20205;-77
2022/10/10 21:58:34;;;;;;;16.00;7.30;;;;;7.40;101898.00;;;;10505805;28;20697;-76
2022/10/10 22:03:35;;;;;;;17.80;5.97;;;;;7.30;101902.00;;;;10489333;28;20217;-76
2022/10/10 22:08:37;;;;;;;17.90;5.87;;;;;7.30;101896.00;;;;10485950;28;20189;-77
2022/10/10 22:13:39;;;;;;;17.63;5.33;;;;;7.20;101905.00;;;;10476966;28;20248;-77
2022/10/10 22:18:41;;;;;;;22.73;6.47;;;;;7.20;101901.00;;;;10487139;28;20201;-76
2022/10/10 22:23:43;;;;;;;15.50;5.03;;;;;7.20;101901.00;;;;10486906;28;20792;-77
2022/10/10 22:28:44;;;;;;;13.90;5.50;;;;;7.10;101895.00;;;;10471034;28;20197;-77
2022/10/10 22:33:46;;;;;;;13.43;4.77;;;;;7.10;101906.00;;;;10501770;28;20188;-76
2022/10/10 22:38:47;;;;;;;13.40;4.63;;;;;7.00;101900.00;;;;10473724;28;20206;-77
2022/10/10 22:43:48;;;;;;;14.97;4.90;;;;;7.00;101903.00;;;;10525317;28;20221;-77
2022/10/10 22:48:49;;;;;;;18.90;5.33;;;;;7.00;101915.00;;;;10465793;27;21209;-77
2022/10/10 22:53:51;;;;;;;13.03;4.70;;;;;6.90;101905.00;;;;10495669;28;20197;-77
2022/10/10 22:58:52;;;;;;;16.40;5.37;;;;;6.90;101911.00;;;;10475211;28;20648;-77
2022/10/10 23:03:55;;;;;;;13.00;4.83;;;;;6.90;101912.00;;;;10514156;28;20762;-77
2022/10/10 23:08:57;;;;;;;14.40;5.17;;;;;6.80;101912.00;;;;10486548;28;20209;-77
2022/10/10 23:13:58;;;;;;;16.73;5.37;;;;;6.80;101917.00;;;;10483500;28;20552;-77
2022/10/10 23:18:59;;;;;;;14.37;4.63;;;;;6.70;101910.00;;;;10520126;27;20655;-77
2022/10/10 23:24:00;;;;;;;17.77;4.53;;;;;6.60;101916.00;;;;10474159;28;20213;-76
2022/10/10 23:29:02;;;;;;;17.87;5.80;;;;;6.60;101914.00;;;;10494974;28;20196;-77
2022/10/10 23:34:03;;;;;;;22.07;5.70;;;;;6.50;101918.00;;;;10500140;28;20197;-77
2022/10/10 23:39:04;;;;;;;14.97;4.57;;;;;6.40;101922.00;;;;10495177;28;20197;-77
2022/10/10 23:44:10;;;;;;;14.73;5.57;;;;;6.40;101924.00;;;;10500246;27;20227;-77
2022/10/10 23:49:30;;;;;;;15.50;5.40;;;;;6.30;101913.00;;;;10517412;28;20186;-77
2022/10/10 23:54:50;;;;;;;17.20;4.60;;;;;6.30;101930.00;;;;10499195;28;20227;-77
